createdAt,value
2022-10-18T00:02:00.061Z,2.05
2022-10-18T00:04:33.357Z,2.10
2022-10-18T00:07:06.237Z,1.95
2022-10-18T00:09:39.352Z,2.60
2022-10-18T00:12:13.548Z,2.05
2022-10-18T00:14:46.343Z,2.28
2022-10-18T00:17:19.410Z,1.83
2022-10-18T00:19:52.341Z,2.70
2022-10-18T00:22:25.459Z,2.30
2022-10-18T00:24:58.381Z,2.17
2022-10-18T00:27:32.677Z,2.17
2022-10-18T00:30:06.872Z,2.28
2022-10-18T00:32:40.288Z,2.28
2022-10-18T00:35:13.102Z,2.22
2022-10-18T00:37:45.849Z,2.00
2022-10-18T00:40:18.979Z,2.25
2022-10-18T00:42:53.188Z,2.28
2022-10-18T00:45:26.296Z,2.10
2022-10-18T00:48:02.355Z,2.42
2022-10-18T00:50:36.318Z,2.33
2022-10-18T00:53:14.005Z,2.30
2022-10-18T00:55:47.554Z,2.65
2022-10-18T00:58:21.769Z,2.28
2022-10-18T01:00:54.612Z,2.47
2022-10-18T01:03:27.647Z,2.17
2022-10-18T01:06:00.675Z,2.20
2022-10-18T01:08:46.416Z,2.17
2022-10-18T01:11:32.842Z,2.05
2022-10-18T01:14:19.796Z,2.10
2022-10-18T01:17:01.852Z,2.83
2022-10-18T01:20:19.655Z,2.22
2022-10-18T01:22:57.986Z,2.10
2022-10-18T01:25:41.998Z,2.20
2022-10-18T01:28:29.952Z,2.10
2022-10-18T01:31:06.183Z,2.22
2022-10-18T01:33:42.580Z,2.05
2022-10-18T01:36:20.805Z,2.22
2022-10-18T01:38:58.598Z,2.20
2022-10-18T01:41:31.775Z,2.00
2022-10-18T01:44:08.405Z,2.22
2022-10-18T01:46:45.191Z,2.50
2022-10-18T01:49:18.079Z,2.17
2022-10-18T01:51:50.854Z,2.17
2022-10-18T01:54:30.788Z,2.00
2022-10-18T01:57:10.544Z,2.35
2022-10-18T01:59:53.105Z,1.88
2022-10-18T02:02:40.908Z,2.10
2022-10-18T02:05:22.687Z,2.78
2022-10-18T02:10:56.952Z,1.90
2022-10-18T02:13:35.405Z,1.70
2022-10-18T02:16:12.049Z,1.77
2022-10-18T02:18:52.296Z,2.15
2022-10-18T02:21:28.769Z,1.83
2022-10-18T02:24:03.833Z,2.13
2022-10-18T02:26:37.234Z,1.90
2022-10-18T02:29:10.535Z,2.03
2022-10-18T02:31:46.117Z,2.28
2022-10-18T02:34:23.453Z,2.40
2022-10-18T02:36:59.423Z,1.92
2022-10-18T02:39:35.326Z,2.22
2022-10-18T02:42:10.979Z,2.20
2022-10-18T02:44:44.058Z,1.90
2022-10-18T02:47:16.918Z,2.30
2022-10-18T02:49:51.144Z,1.98
2022-10-18T02:52:24.051Z,1.95
2022-10-18T02:54:56.879Z,1.83
2022-10-18T02:57:30.467Z,1.30
2022-10-18T03:00:03.775Z,1.67
2022-10-18T03:02:36.649Z,2.10
2022-10-18T03:05:11.309Z,1.90
2022-10-18T03:07:44.214Z,1.90
2022-10-18T03:10:17.039Z,1.60
2022-10-18T03:12:49.928Z,2.17
2022-10-18T03:15:22.726Z,2.00
2022-10-18T03:17:55.558Z,1.90
2022-10-18T03:20:30.022Z,1.75
2022-10-18T03:23:03.343Z,2.17
2022-10-18T03:25:36.152Z,1.60
2022-10-18T03:28:08.964Z,1.60
2022-10-18T03:30:41.869Z,1.90
2022-10-18T03:33:14.802Z,1.88
2022-10-18T03:35:48.992Z,2.05
2022-10-18T03:38:21.898Z,2.10
2022-10-18T03:40:54.814Z,2.00
2022-10-18T03:43:27.593Z,1.70
2022-10-18T03:46:01.571Z,1.80
2022-10-18T03:48:34.474Z,1.83
2022-10-18T03:51:08.812Z,1.85
2022-10-18T03:53:41.725Z,1.92
2022-10-18T03:56:14.671Z,2.42
2022-10-18T03:58:47.616Z,2.10
2022-10-18T04:01:20.794Z,1.83
2022-10-18T04:03:53.916Z,1.90
2022-10-18T04:06:28.091Z,2.17
2022-10-18T04:09:02.299Z,2.20
2022-10-18T04:11:37.028Z,1.80
2022-10-18T04:14:09.972Z,2.10
2022-10-18T04:16:42.856Z,2.60
2022-10-18T04:19:15.986Z,2.38
2022-10-18T04:21:50.416Z,2.00
2022-10-18T04:24:23.302Z,1.90
2022-10-18T04:26:56.427Z,1.92
2022-10-18T04:29:29.256Z,2.05
2022-10-18T04:32:02.351Z,2.05
2022-10-18T04:34:35.197Z,2.10
2022-10-18T04:37:09.583Z,1.63
2022-10-18T04:39:49.821Z,2.28
2022-10-18T04:42:25.973Z,2.28
2022-10-18T04:44:58.880Z,1.92
2022-10-18T04:47:31.921Z,2.00
2022-10-18T04:50:06.359Z,2.45
2022-10-18T04:52:40.591Z,1.83
2022-10-18T04:55:13.472Z,2.10
2022-10-18T04:57:46.500Z,2.00
2022-10-18T05:00:19.718Z,2.13
2022-10-18T05:02:57.440Z,2.00
2022-10-18T05:05:49.788Z,2.10
2022-10-18T05:08:24.633Z,1.90
2022-10-18T05:10:57.499Z,2.10
2022-10-18T05:13:31.123Z,1.98
2022-10-18T05:16:04.041Z,2.15
2022-10-18T05:18:36.843Z,1.80
2022-10-18T05:21:09.772Z,2.50
2022-10-18T05:23:44.048Z,1.98
2022-10-18T05:26:16.884Z,2.25
2022-10-18T05:28:50.875Z,2.35
2022-10-18T05:31:23.768Z,2.10
2022-10-18T05:33:56.590Z,2.10
2022-10-18T05:36:29.583Z,2.15
2022-10-18T05:39:05.841Z,2.22
2022-10-18T05:41:38.627Z,2.00
2022-10-18T05:44:11.501Z,1.92
2022-10-18T05:46:44.355Z,1.80
2022-10-18T05:49:17.230Z,2.38
2022-10-18T05:51:50.309Z,2.10
2022-10-18T05:54:24.491Z,2.47
2022-10-18T05:56:57.271Z,1.98
2022-10-18T05:59:30.115Z,2.03
2022-10-18T06:02:03.536Z,2.03
2022-10-18T06:04:36.334Z,1.73
2022-10-18T06:07:10.367Z,2.17
2022-10-18T06:09:44.550Z,2.30
2022-10-18T06:12:17.405Z,1.67
2022-10-18T06:14:50.350Z,1.98
2022-10-18T06:17:23.216Z,1.98
2022-10-18T06:19:56.079Z,1.88
2022-10-18T06:22:28.916Z,2.03
2022-10-18T06:25:03.189Z,2.40
2022-10-18T06:27:36.120Z,2.20
2022-10-18T06:30:10.445Z,1.95
2022-10-18T06:32:43.302Z,2.28
2022-10-18T06:35:16.294Z,2.00
2022-10-18T06:37:49.105Z,2.20
2022-10-18T06:40:23.357Z,2.10
2022-10-18T06:43:00.623Z,2.10
2022-10-18T06:45:43.421Z,2.22
2022-10-18T06:48:16.320Z,2.35
2022-10-18T06:50:53.723Z,2.30
2022-10-18T06:53:27.274Z,2.30
2022-10-18T06:56:02.866Z,3.03
2022-10-18T06:58:36.647Z,2.40
2022-10-18T07:01:10.910Z,2.22
2022-10-18T07:03:45.109Z,2.75
2022-10-18T07:06:19.687Z,2.40
2022-10-18T07:08:54.227Z,2.30
2022-10-18T07:11:28.779Z,2.38
2022-10-18T07:14:04.808Z,2.42
2022-10-18T07:16:37.726Z,2.38
2022-10-18T07:19:10.587Z,2.50
2022-10-18T07:21:43.544Z,2.60
2022-10-18T07:24:16.395Z,2.30
2022-10-18T07:26:50.567Z,2.45
2022-10-18T07:29:23.407Z,2.65
2022-10-18T07:31:56.222Z,2.45
2022-10-18T07:34:29.089Z,2.70
2022-10-18T07:37:02.918Z,2.20
2022-10-18T07:39:35.718Z,2.35
2022-10-18T07:42:09.933Z,2.60
2022-10-18T07:44:42.730Z,2.95
2022-10-18T07:47:16.327Z,2.40
2022-10-18T07:49:49.074Z,2.47
2022-10-18T07:52:21.909Z,2.47
2022-10-18T07:54:54.740Z,2.55
2022-10-18T07:57:29.443Z,2.58
2022-10-18T08:00:02.338Z,2.58
2022-10-18T08:02:35.329Z,4.05
2022-10-18T08:05:08.716Z,2.80
2022-10-18T08:07:41.601Z,2.67
2022-10-18T08:10:14.577Z,2.50
2022-10-18T08:12:48.874Z,2.33
2022-10-18T08:15:25.121Z,2.45
2022-10-18T08:17:58.076Z,2.90
2022-10-18T08:20:33.243Z,2.90
2022-10-18T08:23:06.298Z,2.75
2022-10-18T08:25:39.197Z,2.83
2022-10-18T08:28:13.863Z,2.45
2022-10-18T08:30:46.819Z,2.80
2022-10-18T08:33:19.702Z,2.72
2022-10-18T08:35:56.651Z,3.05
2022-10-18T08:38:31.809Z,2.78
2022-10-18T08:41:29.623Z,2.78
2022-10-18T08:44:09.315Z,2.13
2022-10-18T08:46:45.970Z,2.25
2022-10-18T08:49:26.757Z,2.45
2022-10-18T08:52:00.018Z,2.70
2022-10-18T08:54:38.682Z,2.13
2022-10-18T08:57:15.786Z,2.58
2022-10-18T08:59:50.156Z,2.35
2022-10-18T09:02:37.408Z,2.55
2022-10-18T09:05:23.930Z,2.40
2022-10-18T09:08:24.291Z,2.20
2022-10-18T09:11:08.714Z,2.20
2022-10-18T09:14:04.410Z,2.05
2022-10-18T09:16:46.827Z,2.30
2022-10-18T09:19:45.199Z,2.13
2022-10-18T09:22:20.739Z,2.08
2022-10-18T09:25:01.650Z,2.28
2022-10-18T09:27:43.399Z,2.35
2022-10-18T09:30:24.326Z,2.00
2022-10-18T09:33:06.286Z,1.73
2022-10-18T09:35:43.480Z,2.00
2022-10-18T09:38:22.641Z,1.88
2022-10-18T09:41:00.139Z,1.95
2022-10-18T09:43:47.087Z,1.80
2022-10-18T09:46:21.676Z,2.03
2022-10-18T09:49:00.334Z,1.98
2022-10-18T09:51:37.534Z,1.80
2022-10-18T09:54:23.179Z,1.90
2022-10-18T09:57:03.578Z,2.63
2022-10-18T09:59:39.754Z,2.15
2022-10-18T10:02:15.280Z,2.08
2022-10-18T10:04:49.863Z,1.95
2022-10-18T10:07:29.946Z,1.75
2022-10-18T10:10:09.563Z,2.13
2022-10-18T10:12:42.745Z,1.95
2022-10-18T10:15:21.233Z,2.05
2022-10-18T10:17:59.261Z,1.67
2022-10-18T10:20:37.519Z,1.88
2022-10-18T10:25:53.524Z,1.73
2022-10-18T10:28:30.074Z,2.25
2022-10-18T10:31:19.884Z,1.70
2022-10-18T10:34:00.704Z,1.73
2022-10-18T10:36:35.285Z,1.60
2022-10-18T10:39:12.633Z,1.80
2022-10-18T10:41:49.427Z,1.95
2022-10-18T10:44:24.577Z,1.50
2022-10-18T10:46:58.593Z,2.10
2022-10-18T10:49:44.438Z,1.80
2022-10-18T10:52:28.815Z,1.52
2022-10-18T10:55:23.601Z,2.10
2022-10-18T10:57:57.351Z,1.73
2022-10-18T11:00:39.159Z,2.03
2022-10-18T11:03:30.022Z,1.55
2022-10-18T11:06:03.174Z,1.50
2022-10-18T11:08:42.337Z,2.15
2022-10-18T11:11:23.040Z,1.50
2022-10-18T11:14:24.820Z,1.67
2022-10-18T11:17:08.074Z,1.92
2022-10-18T11:19:53.072Z,2.10
2022-10-18T11:22:29.009Z,1.88
2022-10-18T11:25:05.013Z,1.90
2022-10-18T11:27:44.033Z,1.83
2022-10-18T11:30:46.440Z,1.67
2022-10-18T11:33:50.161Z,2.10
2022-10-18T11:36:25.698Z,1.80
2022-10-18T11:39:05.417Z,1.73
2022-10-18T11:41:46.239Z,1.98
2022-10-18T11:44:29.162Z,1.75
2022-10-18T11:47:12.254Z,1.63
2022-10-18T11:50:02.422Z,1.85
2022-10-18T11:52:44.049Z,2.10
2022-10-18T11:58:25.116Z,1.90
2022-10-18T12:03:46.552Z,1.98
2022-10-18T12:06:23.340Z,1.90
2022-10-18T12:09:00.673Z,1.70
2022-10-18T12:11:43.953Z,1.70
2022-10-18T12:14:25.595Z,1.80
2022-10-18T12:17:35.903Z,1.75
2022-10-18T12:20:00.660Z,2.13
2022-10-18T12:22:37.713Z,1.83
2022-10-18T12:25:14.335Z,1.65
2022-10-18T12:27:53.167Z,1.90
2022-10-18T12:30:37.000Z,2.92
2022-10-18T12:33:27.811Z,1.42
2022-10-18T12:38:43.723Z,1.67
2022-10-18T12:41:22.262Z,1.73
2022-10-18T12:44:00.054Z,1.85
2022-10-18T12:46:50.088Z,1.92
2022-10-18T12:49:28.736Z,2.10
2022-10-18T12:52:05.777Z,2.42
2022-10-18T12:54:40.671Z,2.03
2022-10-18T12:57:24.864Z,1.80
2022-10-18T12:59:57.724Z,2.08
2022-10-18T13:02:33.041Z,1.90
2022-10-18T13:05:48.924Z,1.95
2022-10-18T13:08:43.533Z,1.75
2022-10-18T13:11:36.189Z,1.83
2022-10-18T13:14:53.541Z,1.85
2022-10-18T13:17:45.112Z,1.52
2022-10-18T13:20:27.428Z,1.50
2022-10-18T13:23:11.866Z,1.95
2022-10-18T13:25:55.563Z,2.00
2022-10-18T13:28:37.290Z,2.20
2022-10-18T13:31:20.619Z,1.95
2022-10-18T13:33:54.881Z,1.77
2022-10-18T13:36:33.816Z,1.85
2022-10-18T13:39:07.209Z,1.60
2022-10-18T13:42:13.455Z,1.83
2022-10-18T13:44:47.151Z,1.73
2022-10-18T13:47:40.998Z,1.98
2022-10-18T13:50:39.360Z,1.58
2022-10-18T13:53:34.730Z,1.90
2022-10-18T13:56:32.753Z,1.85
2022-10-18T13:59:22.885Z,1.92
2022-10-18T14:02:15.143Z,2.35
2022-10-18T14:05:24.690Z,1.75
2022-10-18T14:08:08.139Z,1.52
2022-10-18T14:11:01.763Z,2.05
2022-10-18T14:13:44.389Z,2.25
2022-10-18T14:16:41.142Z,1.80
2022-10-18T14:19:20.966Z,1.38
2022-10-18T14:22:00.069Z,1.60
2022-10-18T14:24:35.396Z,1.58
2022-10-18T14:27:18.113Z,1.75
2022-10-18T14:29:52.338Z,1.60
2022-10-18T14:32:28.905Z,1.77
2022-10-18T14:35:27.559Z,1.65
2022-10-18T14:37:56.576Z,1.73
2022-10-18T14:40:42.710Z,1.83
2022-10-18T14:43:19.959Z,1.42
2022-10-18T14:48:25.998Z,1.75
2022-10-18T14:51:00.677Z,1.73
2022-10-18T14:53:38.385Z,1.98
2022-10-18T14:56:23.120Z,1.88
2022-10-18T14:58:57.948Z,1.85
2022-10-18T15:01:33.352Z,1.55
2022-10-18T15:04:10.820Z,1.67
2022-10-18T15:06:45.141Z,1.52
2022-10-18T15:09:24.198Z,1.60
2022-10-18T15:12:00.712Z,1.50
2022-10-18T15:14:34.522Z,1.83
2022-10-18T15:17:13.954Z,2.05
2022-10-18T15:19:59.361Z,2.17
2022-10-18T15:22:35.120Z,1.60
2022-10-18T15:25:15.608Z,1.60
2022-10-18T15:27:52.456Z,1.70
2022-10-18T15:30:28.168Z,1.70
2022-10-18T15:33:02.681Z,1.55
2022-10-18T15:35:37.720Z,1.60
2022-10-18T15:38:16.884Z,1.95
2022-10-18T15:40:49.813Z,1.95
2022-10-18T15:43:38.006Z,1.95
2022-10-18T15:46:31.185Z,1.50
2022-10-18T15:49:37.420Z,1.75
2022-10-18T15:52:38.634Z,1.77
2022-10-18T15:55:57.944Z,2.20
2022-10-18T15:58:39.156Z,1.92
2022-10-18T16:01:19.367Z,1.88
2022-10-18T16:06:30.732Z,2.10
2022-10-18T16:09:03.578Z,1.90
2022-10-18T16:11:36.428Z,2.42
2022-10-18T16:14:09.444Z,2.92
2022-10-18T16:16:44.313Z,1.77
2022-10-18T16:19:21.224Z,2.20
2022-10-18T16:21:56.128Z,2.00
2022-10-18T16:24:29.115Z,2.08
2022-10-18T16:27:02.082Z,2.42
2022-10-18T16:29:34.884Z,2.05
2022-10-18T16:32:09.277Z,2.50
2022-10-18T16:34:42.214Z,2.10
2022-10-18T16:37:15.077Z,2.00
2022-10-18T16:39:47.936Z,2.30
2022-10-18T16:42:20.799Z,2.47
2022-10-18T16:44:54.994Z,2.03
2022-10-18T16:47:29.461Z,3.00
2022-10-18T16:50:06.541Z,2.55
2022-10-18T16:52:39.764Z,2.50
2022-10-18T16:55:21.451Z,2.47
2022-10-18T17:00:26.902Z,2.00
2022-10-18T17:03:01.364Z,2.65
2022-10-18T17:05:34.374Z,3.45
2022-10-18T17:08:07.754Z,2.60
2022-10-18T17:10:40.591Z,2.10
2022-10-18T17:13:13.439Z,3.13
2022-10-18T17:15:46.751Z,2.40
2022-10-18T17:18:23.195Z,2.35
2022-10-18T17:20:56.642Z,2.88
2022-10-18T17:23:29.550Z,2.22
2022-10-18T17:26:26.330Z,2.25
2022-10-18T17:28:57.701Z,3.00
2022-10-18T17:31:32.113Z,2.38
2022-10-18T17:34:06.549Z,2.72
2022-10-18T17:36:39.432Z,2.83
2022-10-18T17:39:12.502Z,3.38
2022-10-18T17:41:45.305Z,3.60
2022-10-18T17:44:18.465Z,3.38
2022-10-18T17:46:51.421Z,3.40
2022-10-18T17:49:26.029Z,3.15
2022-10-18T17:52:01.147Z,2.65
2022-10-18T17:54:37.360Z,2.80
2022-10-18T17:57:10.212Z,3.13
2022-10-18T17:59:43.170Z,3.95
2022-10-18T18:02:15.995Z,3.28
2022-10-18T18:04:50.155Z,3.50
2022-10-18T18:07:23.008Z,3.33
2022-10-18T18:09:57.016Z,2.95
2022-10-18T18:12:30.107Z,3.42
2022-10-18T18:15:03.154Z,3.45
2022-10-18T18:17:56.033Z,3.17
2022-10-18T18:20:30.803Z,3.10
2022-10-18T18:23:03.678Z,3.75
2022-10-18T18:25:36.523Z,3.40
2022-10-18T18:28:09.375Z,3.30
2022-10-18T18:30:42.263Z,3.55
2022-10-18T18:33:15.178Z,3.00
2022-10-18T18:35:57.435Z,3.22
2022-10-18T18:38:30.348Z,2.95
2022-10-18T18:41:06.743Z,3.28
2022-10-18T18:43:40.868Z,3.15
2022-10-18T18:46:14.019Z,3.50
2022-10-18T18:48:46.903Z,3.33
2022-10-18T18:51:22.970Z,3.33
2022-10-18T18:53:56.259Z,3.67
2022-10-18T18:56:30.100Z,3.05
2022-10-18T18:59:03.359Z,3.05
2022-10-18T19:01:39.003Z,2.90
2022-10-18T19:04:12.306Z,2.90
2022-10-18T19:06:47.049Z,2.92
2022-10-18T19:09:22.798Z,3.35
2022-10-18T19:11:57.225Z,3.13
2022-10-18T19:14:30.101Z,2.95
2022-10-18T19:17:07.060Z,3.38
2022-10-18T19:19:40.915Z,3.17
2022-10-18T19:22:15.314Z,2.72
2022-10-18T19:24:48.136Z,3.05
2022-10-18T19:27:21.081Z,3.10
2022-10-18T19:29:53.961Z,3.10
2022-10-18T19:32:29.840Z,3.50
2022-10-18T19:35:02.693Z,3.58
2022-10-18T19:37:37.016Z,7.68
2022-10-18T19:40:10.769Z,5.97
2022-10-18T19:42:43.829Z,4.57
2022-10-18T19:45:16.725Z,4.32
2022-10-18T19:47:49.727Z,3.97
2022-10-18T19:50:22.566Z,3.45
2022-10-18T19:52:56.884Z,3.25
2022-10-18T19:55:30.329Z,3.15
2022-10-18T19:58:03.492Z,3.90
2022-10-18T20:00:36.383Z,3.20
2022-10-18T20:03:09.205Z,4.10
2022-10-18T20:05:43.339Z,3.22
2022-10-18T20:08:18.198Z,3.03
2022-10-18T20:10:51.189Z,4.68
2022-10-18T20:13:25.062Z,2.78
2022-10-18T20:15:57.982Z,3.17
2022-10-18T20:18:33.162Z,2.78
2022-10-18T20:21:06.972Z,3.50
2022-10-18T20:23:42.678Z,3.35
2022-10-18T20:26:20.460Z,3.25
2022-10-18T20:28:56.936Z,3.55
2022-10-18T20:31:31.640Z,3.15
2022-10-18T20:34:07.253Z,5.05
2022-10-18T20:36:41.534Z,3.35
2022-10-18T20:39:15.975Z,2.95
2022-10-18T20:41:49.235Z,3.60
2022-10-18T20:44:22.756Z,2.47
2022-10-18T20:46:55.530Z,3.22
2022-10-18T20:49:28.326Z,3.00
2022-10-18T20:52:01.358Z,3.08
2022-10-18T20:54:35.644Z,2.92
2022-10-18T20:57:08.425Z,3.30
2022-10-18T20:59:41.709Z,2.72
2022-10-18T21:02:14.752Z,3.20
2022-10-18T21:04:47.696Z,3.10
2022-10-18T21:07:20.509Z,2.85
2022-10-18T21:09:54.911Z,3.92
2022-10-18T21:12:29.060Z,3.13
2022-10-18T21:15:02.161Z,3.28
2022-10-18T21:17:35.037Z,2.80
2022-10-18T21:20:09.799Z,3.58
2022-10-18T21:22:42.680Z,2.53
2022-10-18T21:25:17.270Z,2.42
2022-10-18T21:27:50.104Z,2.95
2022-10-18T21:30:23.565Z,3.28
2022-10-18T21:32:56.402Z,3.20
2022-10-18T21:35:29.292Z,2.75
2022-10-18T21:38:02.096Z,2.88
2022-10-18T21:40:39.814Z,3.03
2022-10-18T21:43:12.821Z,2.72
2022-10-18T21:45:45.739Z,3.17
2022-10-18T21:48:18.570Z,2.88
2022-10-18T21:50:52.705Z,2.90
2022-10-18T21:53:25.567Z,3.00
2022-10-18T21:56:05.731Z,2.58
2022-10-18T21:58:38.955Z,3.08
2022-10-18T22:01:13.570Z,3.15
2022-10-18T22:03:48.741Z,2.90
2022-10-18T22:06:22.228Z,3.03
2022-10-18T22:08:57.979Z,2.67
2022-10-18T22:11:35.204Z,3.00
2022-10-18T22:14:08.071Z,2.90
2022-10-18T22:16:40.918Z,2.95
2022-10-18T22:19:14.094Z,3.05
2022-10-18T22:21:47.206Z,2.85
2022-10-18T22:24:20.138Z,2.60
2022-10-18T22:26:54.321Z,3.05
2022-10-18T22:29:27.139Z,2.67
2022-10-18T22:32:01.971Z,3.38
2022-10-18T22:34:34.856Z,2.75
2022-10-18T22:37:07.768Z,2.85
2022-10-18T22:39:40.566Z,2.80
2022-10-18T22:42:14.954Z,4.97
2022-10-18T22:44:47.860Z,2.85
2022-10-18T22:47:21.072Z,2.65
2022-10-18T22:49:53.876Z,3.00
2022-10-18T22:52:26.794Z,3.10
2022-10-18T22:54:59.566Z,3.00
2022-10-18T22:57:33.828Z,2.58
2022-10-18T23:00:08.010Z,2.80
2022-10-18T23:02:40.897Z,3.13
2022-10-18T23:05:13.728Z,3.58
2022-10-18T23:07:49.881Z,2.95
2022-10-18T23:10:22.710Z,2.95
2022-10-18T23:12:56.902Z,2.60
2022-10-18T23:15:29.728Z,3.10
2022-10-18T23:18:03.166Z,3.15
2022-10-18T23:20:36.001Z,2.97
2022-10-18T23:23:08.853Z,2.65
2022-10-18T23:25:42.352Z,2.63
2022-10-18T23:28:16.576Z,3.08
2022-10-18T23:30:49.337Z,2.95
2022-10-18T23:33:22.614Z,2.80
2022-10-18T23:35:55.429Z,2.83
2022-10-18T23:38:29.743Z,2.50
2022-10-18T23:41:02.538Z,3.90
2022-10-18T23:43:37.211Z,2.92
2022-10-18T23:46:10.682Z,3.10
2022-10-18T23:48:43.834Z,2.92
2022-10-18T23:51:17.707Z,3.00
2022-10-18T23:53:50.754Z,2.60
2022-10-18T23:56:23.708Z,2.85
2022-10-18T23:58:57.959Z,2.88
